Time;durP1;ratioP1;P1;durP2;ratioP2;P2;SDS_P1;SDS_P2;PMS_P1;PMS_P2;Temp;Humidity;BMP_temperature;BMP_pressure;BME280_temperature;BME280_humidity;BME280_pressure;Samples;Min_cycle;Max_cycle;Signal;HPM_P1;HPM_P2
2021/04/02 00:00:13;;;;;;;5.63;2.95;;;;;;;30.19;19.24;97773.31;5079126;28;20040;-85
2021/04/02 00:02:39;;;;;;;5.82;2.55;;;;;;;30.26;18.90;97767.28;5067667;28;20028;-84
2021/04/02 00:05:06;;;;;;;4.57;2.85;;;;;;;30.32;18.85;97773.81;5079558;28;20043;-85
2021/04/02 00:07:32;;;;;;;6.55;2.60;;;;;;;30.16;18.99;97773.47;5085454;28;20027;-84
2021/04/02 00:09:58;;;;;;;3.60;2.20;;;;;;;30.04;19.06;97780.94;5071912;28;20044;-85
2021/04/02 00:12:25;;;;;;;5.70;2.63;;;;;;;29.89;19.23;97765.97;5082025;28;20115;-85
2021/04/02 00:14:51;;;;;;;4.40;2.17;;;;;;;30.04;19.05;97766.78;5090322;28;20040;-84
2021/04/02 00:17:17;;;;;;;5.68;3.05;;;;;;;30.22;18.75;97768.72;5082004;28;20036;-84
2021/04/02 00:19:43;;;;;;;5.55;3.03;;;;;;;30.41;18.66;97768.13;5080750;28;20039;-84
2021/04/02 00:22:09;;;;;;;5.72;3.38;;;;;;;30.61;18.72;97765.44;5092980;28;20078;-84
2021/04/02 00:24:35;;;;;;;7.72;3.92;;;;;;;30.67;18.54;97769.16;5070809;28;20461;-84
2021/04/02 00:27:01;;;;;;;8.40;3.55;;;;;;;30.62;18.53;97771.91;5103777;28;20039;-84
2021/04/02 00:29:27;;;;;;;6.15;3.58;;;;;;;30.37;18.71;97767.53;5098878;28;20032;-84
2021/04/02 00:31:53;;;;;;;8.50;3.65;;;;;;;30.17;19.12;97764.53;5083265;28;20074;-84
2021/04/02 00:34:19;;;;;;;6.00;3.03;;;;;;;30.01;19.21;97774.19;5077811;28;20035;-84
2021/04/02 00:36:45;;;;;;;9.25;3.40;;;;;;;30.03;19.48;97777.38;5095166;28;20483;-84
2021/04/02 00:39:12;;;;;;;7.50;3.88;;;;;;;29.92;19.45;97765.78;5094303;28;20425;-84
2021/04/02 00:41:38;;;;;;;8.18;4.07;;;;;;;29.77;19.94;97764.16;5091672;28;20085;-84
2021/04/02 00:44:04;;;;;;;9.05;4.18;;;;;;;29.85;19.87;97759.72;5099408;28;20122;-84
2021/04/02 00:46:30;;;;;;;7.90;4.38;;;;;;;29.90;19.87;97759.03;5103068;28;20432;-84
2021/04/02 00:48:56;;;;;;;5.72;4.03;;;;;;;30.09;19.70;97752.78;5106028;28;20040;-85
2021/04/02 00:51:28;;;;;;;6.38;3.25;;;;;;;30.28;19.51;97758.28;5105604;28;20038;-84
2021/04/02 00:53:56;;;;;;;8.70;2.95;;;;;;;30.44;19.25;97761.50;5097104;28;20024;-85
2021/04/02 00:56:22;;;;;;;9.85;3.78;;;;;;;30.58;19.06;97760.72;5095199;28;20173;-85
2021/04/02 00:58:50;;;;;;;5.40;3.58;;;;;;;30.60;19.17;97763.06;5105385;28;20031;-84
2021/04/02 01:01:16;;;;;;;7.07;3.90;;;;;;;30.02;20.33;97772.94;5098000;28;20065;-84
2021/04/02 01:03:44;;;;;;;7.47;4.03;;;;;;;28.17;21.60;97780.47;5102756;28;20039;-84
2021/04/02 01:06:18;;;;;;;11.65;6.25;;;;;;;25.49;26.17;97784.88;5111452;28;20487;-84
2021/04/02 01:08:44;;;;;;;12.25;5.22;;;;;;;24.29;28.45;97794.06;5096586;28;20031;-84
2021/04/02 01:11:17;;;;;;;13.82;7.25;;;;;;;24.88;27.85;97790.78;5095621;28;20036;-84
2021/04/02 01:13:47;;;;;;;13.18;6.80;;;;;;;25.89;26.17;97783.94;5095925;28;20048;-84
2021/04/02 01:16:25;;;;;;;9.23;5.50;;;;;;;26.10;26.14;97788.06;5078738;28;20521;-84
2021/04/02 01:18:59;;;;;;;10.85;6.68;;;;;;;26.24;25.29;97789.59;5109718;28;20076;-84
2021/04/02 01:21:32;;;;;;;23.25;11.05;;;;;;;22.67;31.07;97788.28;5097485;28;20085;-84
2021/04/02 01:24:01;;;;;;;24.27;11.00;;;;;;;21.42;33.35;97797.72;5087871;28;20453;-84
2021/04/02 01:26:50;;;;;;;16.95;9.02;;;;;;;20.20;34.90;97802.47;5078017;28;20032;-84
2021/04/02 01:29:20;;;;;;;16.83;9.00;;;;;;;21.37;32.88;97799.00;5098859;28;20071;-84
2021/04/02 01:31:55;;;;;;;15.82;8.88;;;;;;;20.30;35.45;97795.22;5090602;28;20515;-84
2021/04/02 01:34:26;;;;;;;14.52;7.53;;;;;;;21.11;33.39;97788.63;5085716;28;20140;-84
2021/04/02 01:36:54;;;;;;;12.68;7.10;;;;;;;22.55;30.98;97776.91;5082257;28;20033;-84
2021/04/02 01:39:22;;;;;;;15.32;7.00;;;;;;;22.89;29.72;97797.03;5087077;28;20032;-84
2021/04/02 01:41:52;;;;;;;12.93;7.28;;;;;;;22.14;31.38;97779.34;5085522;28;20052;-84
2021/04/02 01:44:20;;;;;;;8.43;5.15;;;;;;;22.77;30.98;97780.88;5096236;28;20024;-85
2021/04/02 01:46:47;;;;;;;15.05;6.15;;;;;;;21.67;32.25;97770.16;5097161;28;20028;-84
2021/04/02 01:49:13;;;;;;;10.00;5.07;;;;;;;23.45;30.38;97769.75;5088815;28;20090;-85
2021/04/02 01:51:41;;;;;;;9.93;5.55;;;;;;;23.20;30.11;97789.91;5093539;28;20043;-84
2021/04/02 01:54:09;;;;;;;7.63;5.25;;;;;;;24.18;29.10;97791.50;5089568;28;20631;-85
2021/04/02 01:56:36;;;;;;;9.52;4.93;;;;;;;24.51;28.58;97787.41;5096289;28;20029;-85
2021/04/02 01:59:04;;;;;;;7.90;4.72;;;;;;;25.25;26.63;97793.63;5072757;28;20024;-84
2021/04/02 02:01:39;;;;;;;11.55;6.57;;;;;;;25.39;26.69;97790.38;5091715;28;20495;-85
2021/04/02 02:04:07;;;;;;;15.07;6.32;;;;;;;24.84;26.90;97792.91;5091224;28;20040;-85
2021/04/02 02:06:34;;;;;;;10.82;5.80;;;;;;;25.34;26.71;97788.13;5088766;28;20472;-84
2021/04/02 02:09:06;;;;;;;13.15;6.18;;;;;;;25.77;25.97;97789.56;5090096;28;20103;-85
2021/04/02 02:11:34;;;;;;;11.70;6.05;;;;;;;26.30;25.16;97794.19;5093809;28;20024;-85
2021/04/02 02:14:13;;;;;;;11.27;5.75;;;;;;;26.90;24.42;97803.28;5081267;28;20091;-85
2021/04/02 02:16:48;;;;;;;9.68;5.63;;;;;;;27.20;23.99;97801.72;5053407;28;20481;-82
2021/04/02 02:19:19;;;;;;;9.93;5.20;;;;;;;27.87;23.00;97802.66;5062073;28;20040;-85
2021/04/02 02:21:48;;;;;;;12.65;6.10;;;;;;;28.45;22.05;97811.06;5076021;28;20119;-85
2021/04/02 02:24:15;;;;;;;11.30;5.00;;;;;;;28.85;21.25;97808.09;5079820;28;20029;-84
2021/04/02 02:26:43;;;;;;;10.23;5.32;;;;;;;29.03;21.47;97805.25;5080353;28;20120;-84
2021/04/02 02:29:10;;;;;;;9.77;5.30;;;;;;;29.02;21.43;97795.19;5078414;28;20488;-85
2021/04/02 02:31:37;;;;;;;8.32;4.88;;;;;;;29.04;21.35;97792.66;5063950;28;20094;-85
2021/04/02 02:34:05;;;;;;;7.65;4.22;;;;;;;29.22;20.89;97806.03;5057830;28;20020;-85
2021/04/02 02:36:32;;;;;;;9.35;4.65;;;;;;;29.16;21.45;97800.19;5063282;28;20115;-85
2021/04/02 02:38:58;;;;;;;9.93;5.18;;;;;;;29.09;21.26;97806.16;5077369;28;20028;-84
2021/04/02 02:41:30;;;;;;;7.53;4.15;;;;;;;29.08;21.38;97804.59;5084306;28;20119;-84
2021/04/02 02:43:57;;;;;;;7.97;4.20;;;;;;;29.16;21.16;97803.00;5082967;28;20056;-84
2021/04/02 02:46:28;;;;;;;11.15;4.15;;;;;;;29.24;21.02;97804.25;5083353;28;20395;-84
2021/04/02 02:48:58;;;;;;;9.50;4.43;;;;;;;29.09;21.35;97800.53;5081693;28;20511;-84
2021/04/02 02:51:29;;;;;;;4.93;3.30;;;;;;;28.31;22.56;97813.75;5080210;28;20036;-84
2021/04/02 02:53:57;;;;;;;;;;;;;;;28.12;22.87;97801.66;5082968;28;20036;-84
2021/04/02 02:56:24;;;;;;;8.82;4.07;;;;;;;28.36;22.51;97796.94;5083354;28;20379;-84
2021/04/02 02:58:51;;;;;;;6.32;3.22;;;;;;;28.33;22.44;97803.56;5078693;28;20032;-84
2021/04/02 03:01:18;;;;;;;10.07;4.32;;;;;;;28.61;22.02;97807.19;5081889;28;20047;-84
2021/04/02 03:03:45;;;;;;;8.98;3.92;;;;;;;29.05;21.32;97804.78;5088409;28;20071;-84
2021/04/02 03:06:12;;;;;;;6.60;3.55;;;;;;;28.78;21.82;97808.41;5058036;28;20435;-84
2021/04/02 03:08:46;;;;;;;5.85;3.97;;;;;;;28.18;22.46;97810.25;5056129;28;20135;-84
2021/04/02 03:11:15;;;;;;;9.98;4.50;;;;;;;28.10;22.69;97820.31;5077037;28;20127;-84
2021/04/02 03:13:42;;;;;;;9.00;4.03;;;;;;;27.72;23.25;97807.31;5085888;28;20040;-84
2021/04/02 03:16:10;;;;;;;7.50;4.22;;;;;;;27.31;23.83;97810.56;5063514;28;20035;-84
2021/04/02 03:18:38;;;;;;;7.65;4.07;;;;;;;27.58;23.19;97812.75;5089308;28;20036;-84
2021/04/02 03:21:07;;;;;;;9.77;5.03;;;;;;;27.81;23.06;97798.88;5083808;28;20518;-84
2021/04/02 03:23:36;;;;;;;7.82;4.22;;;;;;;28.27;22.47;97804.63;5080005;28;20481;-83
2021/04/02 03:26:03;;;;;;;7.72;3.95;;;;;;;28.57;22.25;97806.50;5094835;28;20032;-83
2021/04/02 03:28:30;;;;;;;7.90;4.53;;;;;;;28.08;22.88;97810.25;5095001;28;20035;-85
2021/04/02 03:30:56;;;;;;;7.53;4.18;;;;;;;27.31;24.03;97813.38;5082926;28;20125;-85
2021/04/02 03:33:25;;;;;;;11.40;4.90;;;;;;;27.58;23.37;97807.09;5087610;28;20132;-84
2021/04/02 03:35:58;;;;;;;10.88;4.95;;;;;;;27.65;23.61;97813.25;5082138;28;20513;-85
2021/04/02 03:38:30;;;;;;;11.82;4.82;;;;;;;27.86;23.49;97806.75;5076043;28;20115;-84
2021/04/02 03:40:58;;;;;;;7.47;4.97;;;;;;;28.12;22.94;97818.59;5080696;28;20071;-85
2021/04/02 03:43:27;;;;;;;10.18;4.68;;;;;;;28.28;22.96;97814.69;5083988;28;20070;-84
2021/04/02 03:45:54;;;;;;;8.65;5.45;;;;;;;28.24;22.97;97817.63;5101654;28;20445;-84
2021/04/02 03:48:22;;;;;;;10.38;4.97;;;;;;;28.51;22.56;97814.84;5092967;28;20430;-84
2021/04/02 03:50:54;;;;;;;9.15;5.30;;;;;;;28.55;22.50;97821.13;5094703;28;20093;-85
2021/04/02 03:53:44;;;;;;;9.75;4.68;;;;;;;28.27;22.99;97825.19;5109262;28;20035;-85
2021/04/02 03:56:15;;;;;;;7.90;5.00;;;;;;;28.31;23.00;97825.03;5080207;28;20066;-84
2021/04/02 03:58:44;;;;;;;11.00;5.32;;;;;;;28.27;22.71;97827.22;5085604;28;20054;-84
2021/04/02 04:01:13;;;;;;;11.82;5.43;;;;;;;28.29;23.06;97825.50;5093149;28;20032;-84
2021/04/02 04:03:42;;;;;;;10.35;5.82;;;;;;;27.70;23.33;97826.72;5096511;28;20507;-84
2021/04/02 04:06:12;;;;;;;10.93;6.90;;;;;;;26.14;25.82;97833.75;5098892;28;20174;-84
2021/04/02 04:08:40;;;;;;;12.75;6.32;;;;;;;26.20;25.69;97833.97;5092438;28;20447;-84
2021/04/02 04:11:08;;;;;;;13.18;6.93;;;;;;;26.02;26.19;97837.38;5086021;28;20040;-84
2021/04/02 04:13:37;;;;;;;11.40;6.72;;;;;;;25.62;26.88;97837.09;5092029;28;20047;-84
2021/04/02 04:16:06;;;;;;;13.38;7.60;;;;;;;25.55;27.09;97837.31;5106305;28;20425;-84
2021/04/02 04:18:34;;;;;;;21.23;11.60;;;;;;;23.16;30.85;97842.41;5095087;28;20036;-84
2021/04/02 04:21:04;;;;;;;18.23;9.25;;;;;;;23.25;31.22;97842.63;5093945;28;20110;-84
2021/04/02 04:23:32;;;;;;;18.42;9.63;;;;;;;24.00;29.90;97850.06;5098081;28;20118;-84
2021/04/02 04:25:59;;;;;;;23.67;13.70;;;;;;;22.18;32.22;97852.75;5103339;28;20028;-84
2021/04/02 04:28:27;;;;;;;18.20;11.45;;;;;;;22.85;32.00;97846.69;5109209;28;20066;-84
2021/04/02 04:30:56;;;;;;;26.25;14.48;;;;;;;22.25;32.17;97855.44;5101396;28;20028;-84
2021/04/02 04:33:24;;;;;;;36.75;17.75;;;;;;;19.77;37.05;97866.16;5099804;28;20027;-84
2021/04/02 04:35:52;;;;;;;27.50;16.65;;;;;;;19.54;37.33;97871.50;5102271;28;20043;-84
2021/04/02 04:38:20;;;;;;;29.50;14.98;;;;;;;19.13;38.36;97878.91;5103142;28;20032;-84
2021/04/02 04:40:48;;;;;;;28.02;14.75;;;;;;;18.85;39.15;97892.94;5103112;28;20036;-84
2021/04/02 04:43:16;;;;;;;24.63;14.40;;;;;;;18.80;38.79;97882.22;5079180;28;20020;-84
2021/04/02 04:45:43;;;;;;;23.38;13.93;;;;;;;18.22;40.41;97886.34;5107769;28;20028;-84
2021/04/02 04:48:09;;;;;;;18.67;10.38;;;;;;;17.70;40.50;97887.94;5106399;28;20031;-84
2021/04/02 04:50:36;;;;;;;14.00;8.20;;;;;;;17.47;40.62;97906.91;5105916;28;20027;-84
2021/04/02 04:53:20;;;;;;;10.85;6.75;;;;;;;17.76;39.78;97907.78;5105527;28;20032;-84
2021/04/02 04:55:48;;;;;;;8.30;4.78;;;;;;;16.58;41.55;97916.09;5089408;28;20488;-84
2021/04/02 04:58:17;;;;;;;6.78;3.63;;;;;;;16.62;41.85;97924.44;5095073;28;20028;-84
2021/04/02 05:00:45;;;;;;;5.65;3.20;;;;;;;15.55;43.55;97927.53;5093377;28;20145;-84
2021/04/02 05:03:21;;;;;;;2.83;2.35;;;;;;;14.88;44.81;97937.84;5077873;28;20040;-84
2021/04/02 05:05:53;;;;;;;3.63;2.80;;;;;;;14.57;46.13;97944.53;5094181;28;20024;-84
2021/04/02 05:08:24;;;;;;;5.45;2.95;;;;;;;14.46;46.63;97940.81;5102512;28;20044;-84
2021/04/02 05:10:52;;;;;;;5.18;2.88;;;;;;;14.74;46.05;97948.69;5107248;28;20032;-84
2021/04/02 05:13:21;;;;;;;10.27;3.60;;;;;;;14.41;47.01;97958.53;5091001;28;20407;-84
2021/04/02 05:15:49;;;;;;;5.47;3.67;;;;;;;14.52;46.90;97962.22;5099025;28;20054;-84
2021/04/02 05:18:16;;;;;;;4.85;3.20;;;;;;;14.39;47.05;97969.16;5104253;28;20039;-84
2021/04/02 05:20:45;;;;;;;4.40;2.90;;;;;;;16.03;43.13;97962.41;5096997;28;20060;-84
2021/04/02 05:23:14;;;;;;;3.45;2.65;;;;;;;16.46;41.05;97969.84;5097016;28;20107;-83
2021/04/02 05:25:40;;;;;;;4.22;3.22;;;;;;;14.76;45.13;97976.75;5097495;28;20119;-84
2021/04/02 05:28:07;;;;;;;4.15;3.15;;;;;;;14.02;46.77;97964.56;5094105;28;20039;-84
2021/04/02 05:30:35;;;;;;;3.42;3.13;;;;;;;14.42;46.20;97970.38;5100551;28;20025;-85
2021/04/02 05:33:05;;;;;;;3.67;2.88;;;;;;;14.74;44.85;97963.31;5089073;28;20403;-84
2021/04/02 05:35:32;;;;;;;3.65;3.25;;;;;;;15.01;43.99;97964.84;5089040;28;20033;-82
2021/04/02 05:37:58;;;;;;;4.63;3.13;;;;;;;15.77;42.13;97977.19;5089747;28;20127;-85
2021/04/02 05:40:25;;;;;;;3.83;3.08;;;;;;;14.70;44.09;97995.66;5087245;28;20046;-85
2021/04/02 05:42:53;;;;;;;3.90;2.75;;;;;;;14.65;44.95;97989.63;5087315;28;20059;-86
2021/04/02 05:45:19;;;;;;;3.90;3.40;;;;;;;15.03;43.30;97997.63;5085923;28;20090;-86
2021/04/02 05:47:53;;;;;;;3.40;2.85;;;;;;;15.44;42.56;98001.31;5094507;28;20031;-86
2021/04/02 05:50:20;;;;;;;2.50;2.30;;;;;;;16.17;40.74;98003.25;5094635;28;20199;-86
2021/04/02 05:52:49;;;;;;;2.97;2.67;;;;;;;17.01;38.44;97994.75;5085344;28;20663;-86
2021/04/02 05:55:17;;;;;;;3.28;2.97;;;;;;;16.25;39.92;98011.25;5080580;28;20027;-87
2021/04/02 05:57:45;;;;;;;4.00;3.13;;;;;;;15.57;41.07;98025.59;5087756;28;20131;-86
2021/04/02 06:00:13;;;;;;;4.32;3.42;;;;;;;14.92;42.45;98011.34;5089117;28;20032;-86
2021/04/02 06:02:40;;;;;;;4.93;3.95;;;;;;;14.69;43.14;98029.97;5086951;28;20034;-86
2021/04/02 06:05:09;;;;;;;4.18;3.78;;;;;;;15.01;42.35;98022.09;5095298;28;20032;-86
2021/04/02 06:07:38;;;;;;;6.32;4.47;;;;;;;14.84;42.41;98025.44;5082347;28;20047;-86
2021/04/02 06:10:06;;;;;;;5.03;4.35;;;;;;;14.27;43.42;98016.25;5086654;28;20032;-86
2021/04/02 06:12:35;;;;;;;8.52;4.85;;;;;;;13.85;44.65;98015.53;5086970;28;20041;-86
2021/04/02 06:15:03;;;;;;;6.35;4.97;;;;;;;14.46;43.47;98030.03;5077516;28;20447;-86
2021/04/02 06:17:59;;;;;;;5.28;4.72;;;;;;;14.62;42.39;98037.34;5076617;28;20123;-87
2021/04/02 06:20:29;;;;;;;5.82;5.30;;;;;;;15.20;41.20;98036.59;5094667;28;20488;-86
2021/04/02 06:23:09;;;;;;;7.13;5.03;;;;;;;15.30;40.53;98034.34;5094090;28;20107;-86
2021/04/02 06:25:37;;;;;;;6.22;5.47;;;;;;;15.23;40.84;98037.81;5092326;28;20301;-86
2021/04/02 06:28:11;;;;;;;6.95;6.00;;;;;;;15.52;40.65;98033.47;5093256;28;20035;-85
2021/04/02 06:30:39;;;;;;;7.65;5.82;;;;;;;15.42;40.42;98045.16;5091739;28;20028;-86
2021/04/02 06:33:08;;;;;;;5.65;4.47;;;;;;;17.19;36.94;98029.72;5087477;28;20020;-86
2021/04/02 06:35:37;;;;;;;6.68;5.75;;;;;;;16.58;37.39;98026.97;5077316;28;20033;-88
2021/04/02 06:38:03;;;;;;;5.50;4.95;;;;;;;15.88;38.83;98046.50;5066342;28;20059;-87
2021/04/02 06:40:30;;;;;;;7.15;5.47;;;;;;;16.80;36.92;98048.13;5081268;28;20028;-88
2021/04/02 06:43:00;;;;;;;7.28;5.20;;;;;;;16.20;37.56;98055.09;5081864;28;20024;-90
2021/04/02 06:45:28;;;;;;;7.32;6.03;;;;;;;15.56;38.99;98054.47;5085467;28;20383;-88
2021/04/02 06:48:11;;;;;;;7.00;5.82;;;;;;;15.89;38.60;98061.94;5077056;28;20086;-88
2021/04/02 06:50:37;;;;;;;6.13;5.53;;;;;;;16.50;36.79;98073.19;5085178;28;20033;-87
2021/04/02 06:53:05;;;;;;;10.43;7.30;;;;;;;15.41;38.71;98062.91;5082295;28;20020;-88
2021/04/02 06:55:31;;;;;;;12.93;10.05;;;;;;;15.49;38.85;98059.91;5088040;28;20456;-88
2021/04/02 06:58:04;;;;;;;14.82;9.05;;;;;;;15.54;39.24;98058.78;5092302;28;20038;-87
2021/04/02 07:00:33;;;;;;;10.57;7.80;;;;;;;15.67;38.03;98065.63;5094453;28;20089;-87
2021/04/02 07:03:01;;;;;;;8.45;7.03;;;;;;;16.35;36.75;98063.19;5078151;28;20055;-87
2021/04/02 07:05:27;;;;;;;12.10;8.88;;;;;;;15.93;37.52;98067.50;5081350;28;20020;-88
2021/04/02 07:08:00;;;;;;;12.00;9.65;;;;;;;15.63;38.06;98071.16;5087009;28;20036;-87
2021/04/02 07:10:27;;;;;;;12.60;10.05;;;;;;;15.37;38.64;98062.88;5094161;28;20036;-87
2021/04/02 07:12:56;;;;;;;13.05;9.93;;;;;;;16.96;35.74;98068.03;5076870;28;20055;-87
2021/04/02 07:15:22;;;;;;;11.38;8.80;;;;;;;17.58;34.26;98070.72;5049710;28;20029;-87
2021/04/02 07:17:49;;;;;;;9.52;6.57;;;;;;;18.22;32.74;98078.06;5062903;28;20040;-88
2021/04/02 07:20:16;;;;;;;6.32;4.93;;;;;;;18.05;32.13;98087.16;5064801;28;20092;-87
2021/04/02 07:22:42;;;;;;;5.25;4.53;;;;;;;17.46;33.53;98080.16;5072586;28;20082;-87
2021/04/02 07:25:10;;;;;;;4.90;4.35;;;;;;;17.91;32.45;98087.13;5058798;28;20036;-87
2021/04/02 07:27:37;;;;;;;5.50;4.50;;;;;;;17.92;32.23;98097.06;5070033;28;20495;-87
2021/04/02 07:30:06;;;;;;;5.65;4.65;;;;;;;17.59;32.13;98103.69;5062659;28;20503;-87
2021/04/02 07:32:35;;;;;;;4.25;3.85;;;;;;;17.27;33.02;98114.56;5065797;28;20036;-87
2021/04/02 07:35:01;;;;;;;4.88;4.43;;;;;;;17.64;31.95;98121.94;5063036;28;20032;-87
2021/04/02 07:37:36;;;;;;;4.50;4.10;;;;;;;17.52;31.92;98128.63;5066681;28;20111;-87
2021/04/02 07:40:07;;;;;;;5.55;4.85;;;;;;;16.91;33.16;98134.13;5070378;28;20133;-87
2021/04/02 07:42:33;;;;;;;;;;;;;;;17.33;32.71;98133.63;5042930;28;20472;-87
2021/04/02 07:45:00;;;;;;;6.20;5.32;;;;;;;17.12;33.15;98129.53;5056639;28;19927;-87
2021/04/02 07:47:26;;;;;;;7.15;4.65;;;;;;;17.16;32.77;98130.34;5061737;28;20032;-86
2021/04/02 07:49:54;;;;;;;6.75;6.05;;;;;;;16.35;34.14;98139.94;5063800;28;20136;-87
2021/04/02 07:52:43;;;;;;;7.07;5.32;;;;;;;16.10;34.80;98142.47;5059475;28;20033;-87
2021/04/02 07:55:16;;;;;;;5.95;5.03;;;;;;;16.29;34.83;98142.25;5060790;28;20681;-86
2021/04/02 07:58:04;;;;;;;7.10;5.47;;;;;;;17.36;32.87;98149.50;5060852;28;20032;-86
2021/04/02 08:00:34;;;;;;;7.20;6.05;;;;;;;16.34;34.24;98158.53;5061932;28;20029;-87
2021/04/02 08:03:12;;;;;;;5.03;4.30;;;;;;;16.55;34.11;98150.47;5061725;28;20063;-87
2021/04/02 08:05:45;;;;;;;4.35;3.88;;;;;;;15.94;35.20;98152.94;5063415;28;20476;-87
2021/04/02 08:08:15;;;;;;;5.68;4.35;;;;;;;15.90;35.00;98146.56;5063847;28;20481;-86
2021/04/02 08:11:05;;;;;;;4.90;4.40;;;;;;;17.63;32.04;98154.44;5062860;28;20044;-87
2021/04/02 08:13:47;;;;;;;4.05;3.53;;;;;;;18.25;30.68;98152.28;5061628;28;20307;-87
2021/04/02 08:16:32;;;;;;;6.25;4.68;;;;;;;17.14;32.88;98168.78;5045428;28;20033;-87
2021/04/02 08:19:04;;;;;;;3.53;3.22;;;;;;;17.39;32.52;98165.38;5061158;28;20064;-86
2021/04/02 08:21:33;;;;;;;3.80;3.30;;;;;;;16.36;33.43;98163.72;5056497;28;20033;-86
2021/04/02 08:24:00;;;;;;;3.55;3.25;;;;;;;16.30;34.30;98185.41;5048455;28;20472;-87
2021/04/02 08:26:35;;;;;;;4.70;4.03;;;;;;;16.46;34.10;98180.44;5071305;28;20070;-87
2021/04/02 08:29:04;;;;;;;5.00;4.50;;;;;;;15.80;35.04;98178.50;5063846;28;20041;-86
2021/04/02 08:31:30;;;;;;;4.22;3.63;;;;;;;14.82;36.79;98185.31;5072604;28;20488;-86
2021/04/02 08:33:57;;;;;;;6.00;5.10;;;;;;;14.98;36.42;98185.97;5052081;28;20033;-86
2021/04/02 08:36:25;;;;;;;4.93;4.43;;;;;;;16.71;33.63;98191.00;5065491;28;20119;-86
2021/04/02 08:38:54;;;;;;;4.97;4.47;;;;;;;17.44;31.86;98193.56;5062675;28;20033;-86
2021/04/02 08:41:25;;;;;;;4.57;4.05;;;;;;;17.31;31.88;98185.94;5058142;28;20039;-87
2021/04/02 08:43:53;;;;;;;4.13;3.72;;;;;;;16.99;32.67;98186.50;5072040;28;20032;-87
2021/04/02 08:46:36;;;;;;;5.25;4.75;;;;;;;15.57;34.63;98183.31;5061494;28;20029;-86
2021/04/02 08:49:03;;;;;;;6.60;4.32;;;;;;;15.22;36.17;98185.53;5062169;28;20404;-87
2021/04/02 08:51:29;;;;;;;5.30;4.40;;;;;;;15.53;34.90;98185.25;5056977;28;20032;-87
2021/04/02 08:53:55;;;;;;;5.13;4.63;;;;;;;15.57;35.06;98188.84;5065126;28;20119;-87
2021/04/02 08:56:23;;;;;;;4.55;4.07;;;;;;;16.68;32.92;98184.25;5058403;28;20383;-87
2021/04/02 08:58:50;;;;;;;5.68;5.05;;;;;;;15.89;34.10;98179.00;5071006;28;20032;-86
2021/04/02 09:01:18;;;;;;;5.88;4.72;;;;;;;15.84;34.45;98184.09;5071943;28;20033;-86
2021/04/02 09:03:45;;;;;;;4.32;3.92;;;;;;;16.19;33.52;98183.72;5063861;28;20067;-87
2021/04/02 09:06:12;;;;;;;5.13;4.57;;;;;;;16.18;34.27;98191.22;5060311;28;20108;-87
2021/04/02 09:08:39;;;;;;;5.13;4.65;;;;;;;16.28;33.62;98189.75;5068064;28;20063;-87
2021/04/02 09:11:12;;;;;;;5.20;4.70;;;;;;;16.45;32.93;98189.91;5071795;28;20039;-87
2021/04/02 09:13:43;;;;;;;8.50;4.97;;;;;;;15.85;33.92;98189.22;5066587;28;20119;-88
2021/04/02 09:16:14;;;;;;;;;;;;;;;17.12;31.56;98187.00;5066716;28;20020;-88
2021/04/02 09:18:55;;;;;;;6.95;4.05;;;;;;;17.08;31.53;98202.81;5063412;28;19932;-87
2021/04/02 09:21:23;;;;;;;4.07;3.65;;;;;;;16.92;32.79;98200.28;5060962;28;20029;-87
2021/04/02 09:23:50;;;;;;;4.63;4.18;;;;;;;16.60;32.50;98201.97;5056811;28;20029;-87
2021/04/02 09:26:17;;;;;;;5.13;4.63;;;;;;;16.26;34.51;98192.09;5065369;28;20095;-87
2021/04/02 09:28:44;;;;;;;7.75;5.88;;;;;;;15.51;34.31;98203.41;5063285;28;20083;-87
2021/04/02 09:31:27;;;;;;;6.07;4.90;;;;;;;16.56;32.89;98201.97;5060909;28;20093;-87
2021/04/02 09:33:58;;;;;;;6.97;5.07;;;;;;;16.49;32.86;98201.06;5066400;28;20093;-87
2021/04/02 09:36:27;;;;;;;6.93;5.40;;;;;;;16.53;32.89;98205.47;5066534;28;20534;-87
2021/04/02 09:39:09;;;;;;;5.05;4.55;;;;;;;16.58;33.38;98199.59;5060689;28;20416;-87
2021/04/02 09:41:37;;;;;;;5.78;4.53;;;;;;;16.76;33.72;98191.44;5062548;28;20056;-87
2021/04/02 09:44:14;;;;;;;7.85;5.03;;;;;;;16.57;33.50;98200.75;5064671;28;20028;-87
2021/04/02 09:46:44;;;;;;;3.97;3.67;;;;;;;17.88;32.01;98187.88;5067693;28;20040;-87
2021/04/02 09:49:16;;;;;;;5.80;5.22;;;;;;;18.52;29.84;98175.84;5052606;28;20040;-87
2021/04/02 09:51:46;;;;;;;4.93;4.47;;;;;;;18.54;31.39;98190.13;5050796;28;20035;-87
2021/04/02 09:54:14;;;;;;;5.57;4.97;;;;;;;16.90;32.85;98188.78;5060621;28;20139;-86
2021/04/02 09:56:42;;;;;;;6.30;4.95;;;;;;;16.65;33.01;98196.09;5064987;28;20045;-87
2021/04/02 09:59:09;;;;;;;6.60;5.28;;;;;;;17.13;31.83;98191.34;5045597;28;20468;-87
2021/04/02 10:01:36;;;;;;;5.55;4.97;;;;;;;17.01;32.22;98198.00;5059579;28;20033;-87
2021/04/02 10:04:04;;;;;;;6.05;4.70;;;;;;;17.87;30.86;98187.09;5063351;28;20102;-87
2021/04/02 10:06:31;;;;;;;5.60;4.68;;;;;;;17.69;30.26;98196.53;5063248;28;20395;-86
2021/04/02 10:08:57;;;;;;;5.25;4.75;;;;;;;18.29;29.37;98186.47;5049314;28;20504;-86
2021/04/02 10:11:25;;;;;;;4.97;4.47;;;;;;;19.09;27.43;98184.22;5057635;28;20048;-86
2021/04/02 10:13:51;;;;;;;7.15;4.25;;;;;;;19.70;27.15;98178.19;5058231;28;20048;-86
2021/04/02 10:16:19;;;;;;;4.35;3.95;;;;;;;19.16;27.13;98187.78;5083622;28;20135;-86
2021/04/02 10:18:47;;;;;;;5.00;4.30;;;;;;;18.91;28.21;98188.97;5080251;28;20473;-86
2021/04/02 10:21:14;;;;;;;3.50;3.20;;;;;;;19.61;27.11;98188.94;5059860;28;20039;-86
2021/04/02 10:23:40;;;;;;;3.72;3.42;;;;;;;20.72;25.50;98182.53;5086247;28;20036;-86
2021/04/02 10:26:06;;;;;;;2.83;2.63;;;;;;;22.17;23.17;98184.75;5080802;28;20492;-86
2021/04/02 10:28:32;;;;;;;4.18;3.70;;;;;;;20.86;25.17;98188.00;5077886;28;20048;-87
2021/04/02 10:30:59;;;;;;;4.57;3.85;;;;;;;19.65;26.60;98197.31;5080521;28;20032;-86
2021/04/02 10:33:25;;;;;;;4.45;4.03;;;;;;;19.54;27.23;98188.16;5079483;28;20038;-86
2021/04/02 10:35:51;;;;;;;3.33;3.03;;;;;;;19.02;27.93;98190.56;5079519;28;20142;-86
2021/04/02 10:38:17;;;;;;;4.53;4.10;;;;;;;18.51;27.87;98181.78;5081529;28;20040;-86
2021/04/02 10:40:44;;;;;;;2.60;2.38;;;;;;;21.46;25.19;98184.72;5082103;28;20040;-86
2021/04/02 10:43:11;;;;;;;4.35;2.45;;;;;;;23.27;22.34;98175.53;5085296;28;20059;-87
2021/04/02 10:45:37;;;;;;;4.53;3.30;;;;;;;20.02;25.76;98185.66;5082357;28;20031;-86
2021/04/02 10:48:04;;;;;;;4.10;3.53;;;;;;;19.49;26.11;98183.81;5084191;28;20567;-86
2021/04/02 10:50:31;;;;;;;3.25;2.97;;;;;;;19.44;25.88;98192.56;5084058;28;20067;-86
2021/04/02 10:52:58;;;;;;;3.83;3.50;;;;;;;20.59;24.07;98184.19;5079378;28;20040;-86
2021/04/02 10:55:25;;;;;;;2.58;2.38;;;;;;;22.92;21.48;98171.31;5081360;28;20029;-86
2021/04/02 10:57:52;;;;;;;3.53;3.22;;;;;;;22.24;21.79;98172.69;5082316;28;21094;-86
2021/04/02 11:00:20;;;;;;;3.33;3.03;;;;;;;20.51;23.64;98177.84;5065846;28;20036;-85
2021/04/02 11:02:46;;;;;;;2.88;2.60;;;;;;;22.11;22.05;98172.44;5083078;28;20108;-86
2021/04/02 11:05:13;;;;;;;2.75;2.38;;;;;;;23.04;21.58;98178.31;5079836;28;21596;-88
2021/04/02 11:07:39;;;;;;;2.20;2.00;;;;;;;25.19;19.33;98169.16;5079912;28;20132;-87
2021/04/02 11:10:08;;;;;;;2.42;2.22;;;;;;;26.30;19.28;98171.38;5078778;28;20040;-85
2021/04/02 11:12:34;;;;;;;3.20;2.90;;;;;;;26.56;17.40;98172.22;5079224;28;20055;-86
2021/04/02 11:15:00;;;;;;;2.72;2.53;;;;;;;27.54;17.15;98156.97;5062497;28;20029;-86
2021/04/02 11:17:27;;;;;;;2.38;2.17;;;;;;;27.97;16.63;98153.44;5061757;28;20029;-86
2021/04/02 11:19:55;;;;;;;4.70;2.25;;;;;;;28.56;17.55;98150.41;5044198;28;20035;-85
2021/04/02 11:22:21;;;;;;;2.40;2.20;;;;;;;29.26;15.73;98143.97;5063218;28;20036;-85
2021/04/02 11:24:48;;;;;;;2.35;2.00;;;;;;;29.73;17.10;98142.78;5046401;28;20033;-85
2021/04/02 11:27:14;;;;;;;3.05;2.67;;;;;;;27.15;17.25;98143.38;5067767;28;20020;-84
2021/04/02 11:29:41;;;;;;;4.40;2.13;;;;;;;28.21;17.41;98142.50;5056741;28;20033;-85
2021/04/02 11:32:08;;;;;;;2.47;2.10;;;;;;;27.91;16.73;98138.34;5057502;28;20471;-83
2021/04/02 11:34:35;;;;;;;4.38;2.63;;;;;;;26.47;16.96;98144.72;5062314;28;20082;-84
2021/04/02 11:37:02;;;;;;;2.55;2.35;;;;;;;26.46;16.87;98137.53;5060974;28;20025;-83
2021/04/02 11:39:28;;;;;;;2.38;2.00;;;;;;;26.71;17.06;98129.09;5061356;28;20122;-84